createdAt,value
2018-01-16T00:01:15.790Z,21.23
2018-01-16T00:03:44.312Z,16.10
2018-01-16T00:06:12.067Z,18.67
2018-01-16T00:08:39.882Z,16.40
2018-01-16T00:11:07.634Z,17.45
2018-01-16T00:13:35.406Z,20.12
2018-01-16T00:16:03.212Z,16.45
2018-01-16T00:18:30.971Z,15.70
2018-01-16T00:20:58.727Z,18.58
2018-01-16T00:23:26.850Z,17.37
2018-01-16T00:25:54.601Z,15.40
2018-01-16T00:28:22.379Z,19.27
2018-01-16T00:30:50.190Z,17.42
2018-01-16T00:33:17.945Z,17.73
2018-01-16T00:35:45.699Z,17.08
2018-01-16T00:38:13.514Z,16.30
2018-01-16T00:40:41.266Z,19.12
2018-01-16T00:43:09.009Z,18.52
2018-01-16T00:45:36.819Z,18.52
2018-01-16T00:48:04.610Z,18.12
2018-01-16T00:50:33.137Z,18.90
2018-01-16T00:53:00.946Z,16.20
2018-01-16T00:55:29.467Z,17.00
2018-01-16T00:57:57.218Z,17.65
2018-01-16T01:00:25.026Z,16.80
2018-01-16T01:02:52.785Z,17.55
2018-01-16T01:05:20.542Z,17.33
2018-01-16T01:07:48.355Z,16.37
2018-01-16T01:10:16.127Z,19.92
2018-01-16T01:12:43.878Z,17.70
2018-01-16T01:15:11.702Z,17.10
2018-01-16T01:17:39.455Z,17.42
2018-01-16T01:20:07.214Z,12.55
2018-01-16T01:22:35.028Z,17.60
2018-01-16T01:25:02.778Z,17.30
2018-01-16T01:27:30.530Z,14.45
2018-01-16T01:29:59.102Z,17.15
2018-01-16T01:32:27.626Z,13.07
2018-01-16T01:34:55.375Z,17.15
2018-01-16T01:37:23.187Z,17.73
2018-01-16T01:39:50.937Z,16.08
2018-01-16T01:42:18.687Z,16.42
2018-01-16T01:44:46.502Z,14.50
2018-01-16T01:47:14.258Z,14.93
2018-01-16T01:49:42.014Z,18.30
2018-01-16T01:52:09.838Z,16.87
2018-01-16T01:54:37.597Z,13.80
2018-01-16T01:57:05.359Z,17.17
2018-01-16T01:59:33.171Z,16.00
2018-01-16T02:02:00.965Z,15.70
2018-01-16T02:04:28.724Z,16.55
2018-01-16T02:06:56.686Z,16.15
2018-01-16T02:09:24.430Z,14.05
2018-01-16T02:11:52.186Z,14.13
2018-01-16T02:14:20.021Z,14.82
2018-01-16T02:16:47.777Z,13.65
2018-01-16T02:19:15.533Z,14.93
2018-01-16T02:21:43.342Z,13.35
2018-01-16T02:24:11.098Z,15.18
2018-01-16T02:26:38.854Z,12.98
2018-01-16T02:29:07.422Z,13.65
2018-01-16T02:31:35.978Z,13.20
2018-01-16T02:34:03.742Z,16.83
2018-01-16T02:36:31.552Z,13.75
2018-01-16T02:38:59.421Z,13.25
2018-01-16T02:41:27.194Z,12.15
2018-01-16T02:43:55.003Z,13.88
2018-01-16T02:46:22.758Z,13.85
2018-01-16T02:48:50.519Z,13.25
2018-01-16T02:51:18.347Z,13.60
2018-01-16T02:53:46.102Z,13.35
2018-01-16T02:56:13.863Z,14.02
2018-01-16T02:58:41.675Z,14.30
2018-01-16T03:01:09.428Z,15.15
2018-01-16T03:03:37.231Z,11.93
2018-01-16T03:06:05.043Z,12.85
2018-01-16T03:08:32.796Z,13.20
2018-01-16T03:11:00.552Z,12.10
2018-01-16T03:13:28.366Z,12.10
2018-01-16T03:15:56.897Z,11.88
2018-01-16T03:18:24.650Z,10.88
2018-01-16T03:20:52.464Z,13.15
2018-01-16T03:23:20.982Z,11.80
2018-01-16T03:25:48.736Z,13.00
2018-01-16T03:28:16.545Z,11.98
2018-01-16T03:30:44.299Z,12.02
2018-01-16T03:33:12.059Z,11.15
2018-01-16T03:35:39.870Z,12.32
2018-01-16T03:38:08.388Z,14.15
2018-01-16T03:40:36.137Z,13.15
2018-01-16T03:43:03.949Z,12.93
2018-01-16T03:45:31.706Z,12.93
2018-01-16T03:47:59.457Z,12.27
2018-01-16T03:50:27.262Z,12.30
2018-01-16T03:52:55.024Z,12.02
2018-01-16T03:55:22.782Z,10.73
2018-01-16T03:57:51.654Z,12.57
2018-01-16T04:00:20.167Z,11.43
2018-01-16T04:02:47.927Z,10.93
2018-01-16T04:05:15.738Z,11.30
2018-01-16T04:07:43.500Z,11.57
2018-01-16T04:10:11.278Z,11.68
2018-01-16T04:12:39.866Z,12.75
2018-01-16T04:15:08.379Z,9.93
2018-01-16T04:17:36.147Z,10.30
2018-01-16T04:20:04.118Z,11.93
2018-01-16T04:22:31.865Z,10.45
2018-01-16T04:24:59.618Z,14.23
2018-01-16T04:27:27.439Z,11.82
2018-01-16T04:29:55.196Z,13.07
2018-01-16T04:32:22.949Z,10.00
2018-01-16T04:34:50.750Z,9.95
2018-01-16T04:37:19.291Z,12.20
2018-01-16T04:39:47.042Z,11.35
2018-01-16T04:42:14.861Z,10.80
2018-01-16T04:44:43.384Z,11.48
2018-01-16T04:47:11.134Z,9.85
2018-01-16T04:49:38.944Z,10.48
2018-01-16T04:52:07.466Z,11.25
2018-01-16T04:54:35.214Z,10.63
2018-01-16T04:57:03.038Z,10.10
2018-01-16T04:59:30.790Z,12.75
2018-01-16T05:01:58.547Z,11.60
2018-01-16T05:04:26.358Z,12.70
2018-01-16T05:06:54.133Z,12.63
2018-01-16T05:09:21.890Z,12.93
2018-01-16T05:11:49.698Z,13.82
2018-01-16T05:14:17.559Z,14.70
2018-01-16T05:16:45.320Z,17.77
2018-01-16T05:19:13.135Z,15.90
2018-01-16T05:21:40.898Z,15.82
2018-01-16T05:24:08.650Z,15.38
2018-01-16T05:26:37.221Z,15.32
2018-01-16T05:29:05.754Z,16.87
2018-01-16T05:31:33.522Z,14.32
2018-01-16T05:34:01.337Z,16.67
2018-01-16T05:36:29.863Z,17.42
2018-01-16T05:38:57.827Z,15.73
2018-01-16T05:41:25.648Z,15.52
2018-01-16T05:43:54.172Z,13.73
2018-01-16T05:46:22.696Z,15.75
2018-01-16T05:48:51.273Z,15.10
2018-01-16T05:51:19.787Z,15.77
2018-01-16T05:53:47.580Z,15.20
2018-01-16T05:56:15.408Z,15.70
2018-01-16T05:58:43.167Z,12.82
2018-01-16T06:01:10.919Z,14.30
2018-01-16T06:03:38.739Z,13.85
2018-01-16T06:06:06.499Z,10.98
2018-01-16T06:08:34.267Z,13.90
2018-01-16T06:11:02.082Z,12.18
2018-01-16T06:13:29.845Z,12.93
2018-01-16T06:15:57.611Z,13.15
2018-01-16T06:18:25.439Z,12.88
2018-01-16T06:20:53.967Z,12.52
2018-01-16T06:23:21.726Z,14.45
2018-01-16T06:25:49.542Z,9.25
2018-01-16T06:28:18.053Z,10.73
2018-01-16T06:30:45.802Z,9.15
2018-01-16T06:33:13.604Z,9.20
2018-01-16T06:35:41.351Z,7.60
2018-01-16T06:38:09.095Z,7.62
2018-01-16T06:40:36.896Z,6.85
2018-01-16T06:43:04.645Z,8.63
2018-01-16T06:45:32.388Z,7.18
2018-01-16T06:48:00.192Z,8.73
2018-01-16T06:50:27.940Z,8.30
2018-01-16T06:52:56.460Z,7.37
2018-01-16T06:55:25.051Z,20.17
2018-01-16T06:57:53.579Z,13.13
2018-01-16T07:00:21.346Z,17.05
2018-01-16T07:02:49.154Z,12.93
2018-01-16T07:05:17.669Z,12.18
2018-01-16T07:07:45.418Z,10.20
2018-01-16T07:10:13.223Z,9.40
2018-01-16T07:12:40.978Z,17.87
2018-01-16T07:15:08.729Z,12.05
2018-01-16T07:17:36.534Z,10.65
2018-01-16T07:20:05.058Z,10.68
2018-01-16T07:22:32.812Z,9.57
2018-01-16T07:25:00.704Z,9.30
2018-01-16T07:27:28.452Z,14.63
2018-01-16T07:29:56.203Z,9.13
2018-01-16T07:32:24.018Z,12.27
2018-01-16T07:34:52.538Z,16.42
2018-01-16T07:37:20.285Z,11.77
2018-01-16T07:39:48.092Z,12.32
2018-01-16T07:42:15.843Z,10.98
2018-01-16T07:44:44.384Z,11.18
2018-01-16T07:47:12.226Z,11.05
2018-01-16T07:49:40.743Z,8.40
2018-01-16T07:52:08.484Z,8.30
2018-01-16T07:54:37.128Z,10.18
2018-01-16T07:57:04.870Z,7.62
2018-01-16T07:59:32.630Z,7.93
2018-01-16T08:02:00.429Z,8.93
2018-01-16T08:04:28.183Z,9.88
2018-01-16T08:06:55.962Z,10.50
2018-01-16T08:09:24.526Z,9.98
2018-01-16T08:11:52.279Z,11.23
2018-01-16T08:14:20.027Z,11.23
2018-01-16T08:16:47.831Z,10.25
2018-01-16T08:19:15.570Z,9.05
2018-01-16T08:21:43.329Z,6.37
2018-01-16T08:24:11.148Z,9.18
2018-01-16T08:26:38.897Z,9.32
2018-01-16T08:29:06.650Z,10.68
2018-01-16T08:31:34.463Z,8.82
2018-01-16T08:34:02.212Z,8.00
2018-01-16T08:36:29.956Z,6.93
2018-01-16T08:38:57.786Z,6.60
2018-01-16T08:41:26.289Z,7.57
2018-01-16T08:43:54.030Z,8.27
2018-01-16T08:46:22.598Z,6.95
2018-01-16T08:48:50.342Z,7.40
2018-01-16T08:51:18.112Z,6.87
2018-01-16T08:53:45.916Z,6.40
2018-01-16T08:56:13.662Z,5.85
2018-01-16T08:58:42.166Z,5.57
2018-01-16T09:01:09.967Z,7.65
2018-01-16T09:03:37.734Z,6.68
2018-01-16T09:06:05.498Z,6.65
2018-01-16T09:08:33.294Z,4.10
2018-01-16T09:11:01.803Z,5.12
2018-01-16T09:13:29.548Z,6.25
2018-01-16T09:15:57.362Z,6.10
2018-01-16T09:18:25.117Z,6.43
2018-01-16T09:20:52.878Z,6.80
2018-01-16T09:23:21.046Z,6.87
2018-01-16T09:25:48.791Z,6.25
2018-01-16T09:28:16.529Z,5.75
2018-01-16T09:30:44.355Z,7.37
2018-01-16T09:33:12.100Z,7.75
2018-01-16T09:35:39.867Z,6.57
2018-01-16T09:38:07.674Z,6.37
2018-01-16T09:40:35.417Z,5.95
2018-01-16T09:43:03.975Z,4.55
2018-01-16T09:45:31.787Z,8.32
2018-01-16T09:47:59.544Z,10.23
2018-01-16T09:50:27.294Z,10.15
2018-01-16T09:52:55.099Z,12.20
2018-01-16T09:55:22.847Z,8.32
2018-01-16T09:57:50.598Z,8.65
2018-01-16T10:00:18.403Z,8.15
2018-01-16T10:02:46.143Z,8.25
2018-01-16T10:05:13.904Z,9.88
2018-01-16T10:07:41.760Z,11.20
2018-01-16T10:10:10.296Z,12.37
2018-01-16T10:12:38.817Z,10.98
2018-01-16T10:15:06.623Z,10.93
2018-01-16T10:17:34.374Z,6.85
2018-01-16T10:20:02.121Z,7.03
2018-01-16T10:22:29.984Z,8.10
2018-01-16T10:24:57.731Z,5.87
2018-01-16T10:27:25.481Z,7.90
2018-01-16T10:29:53.279Z,6.10
2018-01-16T10:32:21.030Z,5.90
2018-01-16T10:34:48.797Z,7.20
2018-01-16T10:37:16.620Z,6.60
2018-01-16T10:39:44.363Z,8.15
2018-01-16T10:42:12.875Z,7.55
2018-01-16T10:44:40.676Z,7.07
2018-01-16T10:47:08.420Z,7.55
2018-01-16T10:49:36.172Z,10.05
2018-01-16T10:52:03.975Z,8.38
2018-01-16T10:54:32.486Z,7.90
2018-01-16T10:57:00.247Z,7.03
2018-01-16T10:59:28.054Z,6.40
2018-01-16T11:01:55.807Z,8.80
2018-01-16T11:04:23.549Z,8.15
2018-01-16T11:06:51.354Z,7.60
2018-01-16T11:09:19.099Z,7.57
2018-01-16T11:11:46.850Z,7.18
2018-01-16T11:14:14.653Z,7.57
2018-01-16T11:16:43.173Z,7.72
2018-01-16T11:19:10.917Z,7.28
2018-01-16T11:21:38.733Z,6.37
2018-01-16T11:24:06.480Z,5.80
2018-01-16T11:26:34.225Z,6.60
2018-01-16T11:29:02.022Z,9.23
2018-01-16T11:31:29.770Z,9.75
2018-01-16T11:33:58.303Z,8.82
2018-01-16T11:36:26.102Z,8.25
2018-01-16T11:38:53.846Z,8.77
2018-01-16T11:41:21.598Z,8.73
2018-01-16T11:43:49.818Z,6.53
2018-01-16T11:46:17.575Z,8.57
2018-01-16T11:48:45.321Z,8.77
2018-01-16T11:51:13.122Z,7.32
2018-01-16T11:53:41.632Z,8.77
2018-01-16T11:56:09.383Z,9.20
2018-01-16T11:58:37.178Z,6.57
2018-01-16T12:01:04.926Z,10.45
2018-01-16T12:03:32.670Z,9.60
2018-01-16T12:06:00.470Z,8.80
2018-01-16T12:08:28.211Z,9.90
2018-01-16T12:10:55.953Z,10.27
2018-01-16T12:13:23.764Z,9.15
2018-01-16T12:15:52.278Z,8.38
2018-01-16T12:18:20.786Z,8.77
2018-01-16T12:20:48.583Z,9.07
2018-01-16T12:23:16.329Z,7.32
2018-01-16T12:25:44.071Z,8.82
2018-01-16T12:28:11.881Z,8.40
2018-01-16T12:30:39.627Z,8.95
2018-01-16T12:33:07.374Z,8.05
2018-01-16T12:35:35.202Z,10.20
2018-01-16T12:38:03.723Z,9.07
2018-01-16T12:40:32.239Z,8.55
2018-01-16T12:43:00.046Z,9.32
2018-01-16T12:45:27.789Z,9.02
2018-01-16T12:47:55.539Z,7.47
2018-01-16T12:50:24.122Z,9.25
2018-01-16T12:52:52.636Z,9.20
2018-01-16T12:55:20.386Z,10.23
2018-01-16T12:57:48.191Z,9.60
2018-01-16T13:00:15.945Z,10.55
2018-01-16T13:02:43.692Z,10.13
2018-01-16T13:05:12.314Z,10.27
2018-01-16T13:07:40.836Z,10.60
2018-01-16T13:10:08.580Z,14.77
2018-01-16T13:12:36.429Z,13.50
2018-01-16T13:15:04.945Z,16.00
2018-01-16T13:17:32.700Z,12.15
2018-01-16T13:20:00.506Z,13.23
2018-01-16T13:22:28.253Z,9.60
2018-01-16T13:24:55.997Z,12.48
2018-01-16T13:27:23.801Z,12.32
2018-01-16T13:29:51.545Z,15.48
2018-01-16T13:32:19.322Z,13.55
2018-01-16T13:34:47.134Z,12.73
2018-01-16T13:37:14.886Z,12.15
2018-01-16T13:39:42.633Z,11.18
2018-01-16T13:42:11.212Z,11.48
2018-01-16T13:44:40.258Z,12.40
2018-01-16T13:47:08.081Z,14.57
2018-01-16T13:49:35.888Z,11.55
2018-01-16T13:52:03.642Z,11.18
2018-01-16T13:54:31.394Z,11.63
2018-01-16T13:56:59.208Z,10.10
2018-01-16T13:59:27.726Z,13.20
2018-01-16T14:01:55.474Z,10.70
2018-01-16T14:04:23.290Z,12.00
2018-01-16T14:06:51.039Z,10.95
2018-01-16T14:09:18.788Z,12.48
2018-01-16T14:11:46.590Z,14.45
2018-01-16T14:14:14.382Z,12.55
2018-01-16T14:16:42.123Z,9.30
2018-01-16T14:19:10.704Z,11.15
2018-01-16T14:21:39.223Z,10.38
2018-01-16T14:24:06.974Z,11.45
2018-01-16T14:26:34.787Z,10.10
2018-01-16T14:29:02.541Z,9.98
2018-01-16T14:31:30.306Z,10.10
2018-01-16T14:33:58.118Z,10.65
2018-01-16T14:36:25.875Z,10.95
2018-01-16T14:38:53.627Z,9.95
2018-01-16T14:41:22.199Z,14.20
2018-01-16T14:43:50.725Z,16.55
2018-01-16T14:46:18.471Z,28.77
2018-01-16T14:48:46.275Z,38.00
2018-01-16T14:51:14.027Z,45.85
2018-01-16T14:53:41.778Z,14.85
2018-01-16T14:56:09.579Z,14.48
2018-01-16T14:58:38.099Z,11.68
2018-01-16T15:01:05.843Z,12.10
2018-01-16T15:03:33.653Z,11.43
2018-01-16T15:06:01.398Z,12.07
2018-01-16T15:08:29.151Z,12.60
2018-01-16T15:10:56.956Z,13.25
2018-01-16T15:13:24.703Z,12.82
2018-01-16T15:15:52.458Z,14.32
2018-01-16T15:18:20.257Z,12.55
2018-01-16T15:20:48.775Z,13.48
2018-01-16T15:23:16.535Z,14.35
2018-01-16T15:25:44.348Z,13.15
2018-01-16T15:28:12.104Z,13.77
2018-01-16T15:30:39.859Z,14.40
2018-01-16T15:33:07.696Z,15.07
2018-01-16T15:35:35.449Z,14.02
2018-01-16T15:38:03.211Z,14.68
2018-01-16T15:40:31.020Z,15.27
2018-01-16T15:42:58.771Z,15.00
2018-01-16T15:45:26.547Z,16.10
2018-01-16T15:47:55.131Z,15.02
2018-01-16T15:50:23.661Z,16.12
2018-01-16T15:52:51.421Z,15.05
2018-01-16T15:55:19.231Z,12.55
2018-01-16T15:57:46.992Z,13.85
2018-01-16T16:00:14.738Z,14.23
2018-01-16T16:02:42.554Z,14.77
2018-01-16T16:05:10.298Z,13.00
2018-01-16T16:07:38.859Z,13.48
2018-01-16T16:10:06.667Z,16.08
2018-01-16T16:12:34.419Z,17.08
2018-01-16T16:15:02.183Z,16.25
2018-01-16T16:17:29.991Z,17.45
2018-01-16T16:19:57.745Z,16.30
2018-01-16T16:22:25.503Z,14.50
2018-01-16T16:24:53.313Z,13.88
2018-01-16T16:27:22.834Z,15.55
2018-01-16T16:29:50.602Z,16.98
2018-01-16T16:32:18.416Z,19.23
2018-01-16T16:34:46.190Z,17.48
2018-01-16T16:37:14.744Z,16.67
2018-01-16T16:39:42.581Z,14.68
2018-01-16T16:42:10.332Z,18.90
2018-01-16T16:44:38.082Z,16.10
2018-01-16T16:47:05.896Z,16.77
2018-01-16T16:49:33.637Z,15.43
2018-01-16T16:52:01.384Z,16.17
2018-01-16T16:54:29.190Z,15.90
2018-01-16T16:56:56.941Z,15.90
2018-01-16T16:59:24.696Z,16.85
2018-01-16T17:01:52.505Z,16.73
2018-01-16T17:04:21.025Z,16.52
2018-01-16T17:06:48.808Z,15.60
2018-01-16T17:09:16.614Z,14.55
2018-01-16T17:11:44.365Z,14.77
2018-01-16T17:14:12.896Z,14.75
2018-01-16T17:16:40.702Z,13.38
2018-01-16T17:19:09.222Z,11.90
2018-01-16T17:21:36.976Z,14.95
2018-01-16T17:24:04.793Z,16.75
2018-01-16T17:26:32.557Z,16.58
2018-01-16T17:29:00.322Z,19.48
2018-01-16T17:31:28.902Z,15.95
2018-01-16T17:33:56.657Z,17.95
2018-01-16T17:36:24.410Z,15.40
2018-01-16T17:38:52.218Z,15.07
2018-01-16T17:41:19.982Z,14.90
2018-01-16T17:43:47.774Z,16.98
2018-01-16T17:46:15.587Z,18.00
2018-01-16T17:48:44.106Z,17.80
2018-01-16T17:51:11.859Z,18.23
2018-01-16T17:53:39.817Z,19.70
2018-01-16T17:56:07.582Z,15.88
2018-01-16T17:58:35.357Z,14.32
2018-01-16T18:01:03.155Z,16.33
2018-01-16T18:03:30.906Z,15.02
2018-01-16T18:05:58.658Z,17.65
2018-01-16T18:08:26.466Z,17.10
2018-01-16T18:10:54.979Z,17.55
2018-01-16T18:13:22.730Z,15.35
2018-01-16T18:15:50.534Z,15.02
2018-01-16T18:18:18.282Z,17.58
2018-01-16T18:20:46.038Z,15.15
2018-01-16T18:23:13.838Z,14.32
2018-01-16T18:25:41.582Z,17.92
2018-01-16T18:28:09.335Z,19.37
2018-01-16T18:30:37.142Z,20.67
2018-01-16T18:33:05.669Z,20.12
2018-01-16T18:35:33.426Z,19.75
2018-01-16T18:38:01.231Z,20.92
2018-01-16T18:40:29.764Z,21.23
2018-01-16T18:42:57.514Z,18.92
2018-01-16T18:45:25.330Z,20.12
2018-01-16T18:47:53.080Z,20.58
2018-01-16T18:50:20.831Z,21.15
2018-01-16T18:52:48.634Z,26.65
2018-01-16T18:55:17.149Z,29.17
2018-01-16T18:57:44.911Z,32.08
2018-01-16T19:00:12.764Z,38.95
2018-01-16T19:02:40.513Z,39.83
2018-01-16T19:05:08.271Z,31.45
2018-01-16T19:07:36.075Z,26.23
2018-01-16T19:10:03.827Z,21.15
2018-01-16T19:12:31.575Z,24.20
2018-01-16T19:14:59.376Z,21.80
2018-01-16T19:17:27.126Z,15.20
2018-01-16T19:19:54.879Z,13.80
2018-01-16T19:22:22.682Z,9.25
2018-01-16T19:24:51.394Z,10.90
2018-01-16T19:27:19.155Z,9.35
2018-01-16T19:29:46.986Z,10.02
2018-01-16T19:32:14.727Z,8.52
2018-01-16T19:34:42.476Z,8.40
2018-01-16T19:37:10.286Z,8.95
2018-01-16T19:39:38.798Z,7.57
2018-01-16T19:42:06.547Z,8.70
2018-01-16T19:44:34.568Z,7.18
2018-01-16T19:47:02.319Z,7.00
2018-01-16T19:49:30.071Z,9.20
2018-01-16T19:51:57.978Z,8.20
2018-01-16T19:54:26.591Z,8.48
2018-01-16T19:56:54.352Z,9.35
2018-01-16T19:59:22.182Z,9.05
2018-01-16T20:01:50.690Z,8.02
2018-01-16T20:04:18.457Z,9.00
2018-01-16T20:06:46.343Z,8.63
2018-01-16T20:09:14.094Z,9.15
2018-01-16T20:11:41.847Z,14.55
2018-01-16T20:14:09.664Z,14.45
2018-01-16T20:16:37.447Z,13.55
2018-01-16T20:19:05.996Z,11.50
2018-01-16T20:21:33.819Z,7.95
2018-01-16T20:24:02.451Z,8.40
2018-01-16T20:26:30.195Z,8.50
2018-01-16T20:28:57.994Z,7.30
2018-01-16T20:31:26.513Z,6.90
2018-01-16T20:33:54.262Z,7.18
2018-01-16T20:36:22.065Z,6.05
2018-01-16T20:38:50.034Z,6.70
2018-01-16T20:41:17.830Z,5.47
2018-01-16T20:43:46.398Z,5.35
2018-01-16T20:46:14.904Z,5.65
2018-01-16T20:48:42.658Z,6.10
2018-01-16T20:51:10.610Z,4.78
2018-01-16T20:53:38.427Z,8.20
2018-01-16T20:56:06.175Z,6.12
2018-01-16T20:58:33.979Z,6.03
2018-01-16T21:01:01.758Z,4.95
2018-01-16T21:03:30.262Z,5.37
2018-01-16T21:05:58.065Z,4.90
2018-01-16T21:08:25.812Z,5.53
2018-01-16T21:10:53.588Z,7.35
2018-01-16T21:13:21.694Z,5.30
2018-01-16T21:15:49.472Z,5.72
2018-01-16T21:18:17.250Z,4.45
2018-01-16T21:20:45.223Z,4.18
2018-01-16T21:23:12.990Z,3.60
2018-01-16T21:25:40.751Z,4.97
2018-01-16T21:28:08.570Z,4.40
2018-01-16T21:30:37.198Z,3.35
2018-01-16T21:33:05.064Z,3.03
2018-01-16T21:35:32.879Z,4.35
2018-01-16T21:38:01.793Z,3.85
2018-01-16T21:40:29.612Z,3.70
2018-01-16T21:42:57.724Z,4.22
2018-01-16T21:45:25.513Z,3.55
2018-01-16T21:47:54.065Z,3.60
2018-01-16T21:50:22.875Z,3.15
2018-01-16T21:52:50.667Z,3.80
2018-01-16T21:55:18.423Z,4.40
2018-01-16T21:57:46.250Z,4.55
2018-01-16T22:00:14.148Z,4.07
2018-01-16T22:02:41.890Z,2.90
2018-01-16T22:05:09.690Z,3.95
2018-01-16T22:07:37.433Z,4.70
2018-01-16T22:10:05.184Z,6.00
2018-01-16T22:12:32.987Z,5.05
2018-01-16T22:15:01.500Z,3.92
2018-01-16T22:17:29.237Z,3.90
2018-01-16T22:19:57.839Z,4.53
2018-01-16T22:22:25.586Z,4.37
2018-01-16T22:24:54.172Z,4.75
2018-01-16T22:27:21.995Z,4.75
2018-01-16T22:29:49.741Z,4.85
2018-01-16T22:32:17.483Z,4.82
2018-01-16T22:34:45.291Z,4.45
2018-01-16T22:37:13.150Z,4.03
2018-01-16T22:39:40.920Z,5.05
2018-01-16T22:42:10.180Z,6.05
2018-01-16T22:44:38.707Z,7.47
2018-01-16T22:47:07.222Z,7.93
2018-01-16T22:49:35.031Z,6.10
2018-01-16T22:52:02.799Z,5.05
2018-01-16T22:54:30.559Z,7.95
2018-01-16T22:56:58.355Z,4.72
2018-01-16T22:59:26.099Z,7.20
2018-01-16T23:01:54.627Z,9.35
2018-01-16T23:04:22.478Z,12.63
2018-01-16T23:06:50.226Z,7.82
2018-01-16T23:09:17.977Z,10.50
2018-01-16T23:11:45.790Z,6.45
2018-01-16T23:14:13.525Z,4.28
2018-01-16T23:16:41.278Z,6.70
2018-01-16T23:19:09.077Z,5.50
2018-01-16T23:21:36.822Z,6.22
2018-01-16T23:24:04.565Z,6.20
2018-01-16T23:26:32.366Z,7.55
2018-01-16T23:29:00.117Z,7.50
2018-01-16T23:31:27.874Z,7.40
2018-01-16T23:33:55.675Z,8.10
2018-01-16T23:36:24.192Z,6.57
2018-01-16T23:38:51.939Z,8.73
2018-01-16T23:41:19.744Z,6.93
2018-01-16T23:43:48.258Z,6.07
2018-01-16T23:46:16.779Z,9.15
2018-01-16T23:48:44.580Z,4.45
2018-01-16T23:51:12.335Z,5.50
2018-01-16T23:53:40.088Z,9.20
2018-01-16T23:56:07.915Z,6.20
2018-01-16T23:58:35.653Z,4.30
